createdAt,value
2019-06-08T00:01:54.029Z,100277.58
2019-06-08T00:04:22.906Z,100280.25
2019-06-08T00:06:51.771Z,100283.22
2019-06-08T00:09:20.940Z,100286.81
2019-06-08T00:11:50.865Z,100297.62
2019-06-08T00:14:19.600Z,100293.98
2019-06-08T00:16:48.229Z,100304.92
2019-06-08T00:19:17.381Z,100287.29
2019-06-08T00:21:46.021Z,100298.08
2019-06-08T00:24:15.729Z,100302.66
2019-06-08T00:26:44.371Z,100312.09
2019-06-08T00:29:14.109Z,100308.00
2019-06-08T00:31:42.756Z,100322.53
2019-06-08T00:34:11.298Z,100324.25
2019-06-08T00:36:39.942Z,100320.91
2019-06-08T00:39:09.199Z,100316.66
2019-06-08T00:41:37.832Z,100314.14
2019-06-08T00:44:06.649Z,100316.41
2019-06-08T00:46:35.179Z,100313.61
2019-06-08T00:49:03.909Z,100314.51
2019-06-08T00:51:32.494Z,100318.72
2019-06-08T00:54:01.122Z,100319.80
2019-06-08T00:56:30.023Z,100318.65
2019-06-08T00:58:58.828Z,100326.59
2019-06-08T01:01:28.249Z,100335.30
2019-06-08T01:03:57.005Z,100325.13
2019-06-08T01:06:27.391Z,100326.70
2019-06-08T01:08:56.295Z,100339.59
2019-06-08T01:11:24.969Z,100340.53
2019-06-08T01:13:53.540Z,100357.12
2019-06-08T01:16:22.868Z,100344.12
2019-06-08T01:18:51.638Z,100343.19
2019-06-08T01:21:21.276Z,100352.11
2019-06-08T01:23:49.942Z,100355.25
2019-06-08T01:26:19.708Z,100350.78
2019-06-08T01:28:48.684Z,100349.16
2019-06-08T01:31:17.353Z,100355.82
2019-06-08T01:33:45.886Z,100351.33
2019-06-08T01:36:14.442Z,100349.63
2019-06-08T01:38:43.076Z,100352.83
2019-06-08T01:41:11.734Z,100352.33
2019-06-08T01:43:40.292Z,100332.34
2019-06-08T01:46:08.950Z,100345.05
2019-06-08T01:48:37.686Z,100348.69
2019-06-08T01:51:06.250Z,100349.52
2019-06-08T01:53:34.877Z,100347.08
2019-06-08T01:56:03.619Z,100343.80
2019-06-08T01:58:33.418Z,100375.41
2019-06-08T02:01:02.320Z,100354.67
2019-06-08T02:03:30.852Z,100344.63
2019-06-08T02:05:59.433Z,100354.45
2019-06-08T02:08:28.611Z,100362.95
2019-06-08T02:10:57.211Z,100343.70
2019-06-08T02:13:26.870Z,100347.55
2019-06-08T02:15:55.566Z,100355.64
2019-06-08T02:18:37.713Z,100352.37
2019-06-08T02:20:54.764Z,100353.30
2019-06-08T02:23:23.283Z,100343.62
2019-06-08T02:25:51.816Z,100345.27
2019-06-08T02:28:20.539Z,100345.99
2019-06-08T02:30:49.272Z,100360.38
2019-06-08T02:33:17.886Z,100338.50
2019-06-08T02:35:46.447Z,100359.33
2019-06-08T02:38:15.180Z,100366.53
2019-06-08T02:40:43.720Z,100367.94
2019-06-08T02:43:12.674Z,100372.98
2019-06-08T02:45:41.451Z,100368.34
2019-06-08T02:48:10.077Z,100377.09
2019-06-08T02:51:05.502Z,100383.02
2019-06-08T02:53:36.148Z,100390.65
2019-06-08T02:56:04.888Z,100391.16
2019-06-08T02:58:35.766Z,100414.03
2019-06-08T03:01:04.650Z,100402.20
2019-06-08T03:03:35.723Z,100402.58
2019-06-08T03:06:04.865Z,100410.84
2019-06-08T03:08:36.292Z,100421.58
2019-06-08T03:11:05.094Z,100422.86
2019-06-08T03:13:35.620Z,100426.37
2019-06-08T03:16:04.511Z,100432.20
2019-06-08T03:18:33.684Z,100441.16
2019-06-08T03:21:02.572Z,100443.45
2019-06-08T03:23:31.944Z,100452.39
2019-06-08T03:26:00.852Z,100455.03
2019-06-08T03:28:29.462Z,100458.27
2019-06-08T03:30:57.989Z,100451.70
2019-06-08T03:33:26.718Z,100464.34
2019-06-08T03:35:58.227Z,100454.03
2019-06-08T03:38:25.749Z,100476.70
2019-06-08T03:40:54.331Z,100468.72
2019-06-08T03:43:22.852Z,100465.77
2019-06-08T03:45:51.410Z,100485.32
2019-06-08T03:48:20.053Z,100473.87
2019-06-08T03:50:48.590Z,100472.23
2019-06-08T03:53:17.231Z,100483.22
2019-06-08T03:55:47.259Z,100480.98
2019-06-08T03:58:15.896Z,100482.78
2019-06-08T04:00:44.566Z,100483.05
2019-06-08T04:03:13.122Z,100486.52
2019-06-08T04:05:42.690Z,100490.68
2019-06-08T04:08:12.304Z,100485.92
2019-06-08T04:10:42.142Z,100490.73
2019-06-08T04:13:11.877Z,100501.17
2019-06-08T04:15:42.106Z,100508.52
2019-06-08T04:18:11.014Z,100495.84
2019-06-08T04:20:40.316Z,100502.44
2019-06-08T04:23:09.468Z,100499.94
2019-06-08T04:25:38.417Z,100499.75
2019-06-08T04:28:07.473Z,100512.72
2019-06-08T04:30:36.090Z,100512.65
2019-06-08T04:33:04.622Z,100503.91
2019-06-08T04:35:33.150Z,100515.45
2019-06-08T04:38:01.784Z,100514.34
2019-06-08T04:40:30.333Z,100507.34
2019-06-08T04:42:58.911Z,100516.85
2019-06-08T04:45:27.532Z,100512.94
2019-06-08T04:47:56.189Z,100531.17
2019-06-08T04:50:24.819Z,100528.05
2019-06-08T04:52:53.354Z,100521.68
2019-06-08T04:55:22.008Z,100530.48
2019-06-08T04:57:50.952Z,100537.38
2019-06-08T05:00:19.880Z,100529.39
2019-06-08T05:02:50.843Z,100527.55
2019-06-08T05:05:18.956Z,100543.77
2019-06-08T05:07:48.484Z,100534.22
2019-06-08T05:10:18.623Z,100563.03
2019-06-08T05:12:47.718Z,100545.78
2019-06-08T05:15:17.250Z,100559.19
2019-06-08T05:17:47.382Z,100562.06
2019-06-08T05:20:16.499Z,100568.19
2019-06-08T05:22:45.541Z,100560.66
2019-06-08T05:25:14.657Z,100574.62
2019-06-08T05:27:43.394Z,100574.45
2019-06-08T05:30:12.426Z,100565.76
2019-06-08T05:32:41.475Z,100575.21
2019-06-08T05:35:10.415Z,100578.33
2019-06-08T05:37:39.450Z,100575.70
2019-06-08T05:40:08.296Z,100580.48
2019-06-08T05:42:36.858Z,100578.91
2019-06-08T05:45:06.310Z,100579.97
2019-06-08T05:47:35.198Z,100566.66
2019-06-08T05:50:04.800Z,100575.84
2019-06-08T05:52:33.465Z,100562.47
2019-06-08T05:55:02.233Z,100576.42
2019-06-08T05:57:30.810Z,100582.33
2019-06-08T05:59:59.344Z,100593.54
2019-06-08T06:02:27.904Z,100597.38
2019-06-08T06:04:56.551Z,100585.66
2019-06-08T06:07:25.089Z,100590.80
2019-06-08T06:09:53.737Z,100602.52
2019-06-08T06:12:22.274Z,100608.12
2019-06-08T06:14:51.261Z,100599.67
2019-06-08T06:17:20.131Z,100613.09
2019-06-08T06:19:49.247Z,100604.84
2019-06-08T06:22:17.927Z,100618.84
2019-06-08T06:24:47.625Z,100617.52
2019-06-08T06:27:16.348Z,100628.10
2019-06-08T06:29:45.462Z,100635.94
2019-06-08T06:32:14.129Z,100636.77
2019-06-08T06:34:43.882Z,100644.39
2019-06-08T06:37:12.811Z,100641.40
2019-06-08T06:39:41.913Z,100650.57
2019-06-08T06:42:10.596Z,100653.31
2019-06-08T06:44:39.448Z,100649.16
2019-06-08T06:47:08.229Z,100650.36
2019-06-08T06:49:36.959Z,100664.05
2019-06-08T06:52:05.503Z,100667.96
2019-06-08T06:54:34.151Z,100668.31
2019-06-08T06:57:02.910Z,100671.38
2019-06-08T06:59:31.801Z,100686.16
2019-06-08T07:02:00.459Z,100686.12
2019-06-08T07:04:28.982Z,100696.28
2019-06-08T07:06:57.615Z,100686.61
2019-06-08T07:09:26.309Z,100688.61
2019-06-08T07:11:56.651Z,100703.61
2019-06-08T07:14:25.460Z,100717.58
2019-06-08T07:16:54.292Z,100706.18
2019-06-08T07:19:22.830Z,100712.55
2019-06-08T07:21:53.065Z,100722.13
2019-06-08T07:24:22.058Z,100715.23
2019-06-08T07:26:50.583Z,100724.66
2019-06-08T07:29:19.204Z,100732.36
2019-06-08T07:31:48.612Z,100718.92
2019-06-08T07:34:18.579Z,100754.80
2019-06-08T07:36:48.440Z,100752.41
2019-06-08T07:39:17.650Z,100743.06
2019-06-08T07:41:47.419Z,100758.22
2019-06-08T07:44:16.714Z,100737.00
2019-06-08T07:46:45.348Z,100755.52
2019-06-08T07:49:13.899Z,100750.70
2019-06-08T07:51:57.791Z,100753.20
2019-06-08T07:54:13.090Z,100763.30
2019-06-08T07:56:41.715Z,100764.66
2019-06-08T07:59:10.190Z,100799.55
2019-06-08T08:01:38.818Z,100762.95
2019-06-08T08:04:07.443Z,100777.69
2019-06-08T08:06:36.010Z,100766.21
2019-06-08T08:09:05.916Z,100769.66
2019-06-08T08:11:34.611Z,100783.95
2019-06-08T08:14:03.430Z,100797.23
2019-06-08T08:16:32.192Z,100777.58
2019-06-08T08:19:00.831Z,100771.75
2019-06-08T08:21:29.684Z,100780.05
2019-06-08T08:24:01.370Z,100785.41
2019-06-08T08:26:31.279Z,100767.92
2019-06-08T08:29:02.762Z,100801.05
2019-06-08T08:31:29.971Z,100799.31
2019-06-08T08:34:05.336Z,100786.77
2019-06-08T08:36:32.512Z,100795.81
2019-06-08T08:39:02.365Z,100793.06
2019-06-08T08:41:30.201Z,100810.34
2019-06-08T08:44:04.187Z,100778.72
2019-06-08T08:46:29.257Z,100807.17
2019-06-08T08:49:05.930Z,100806.79
2019-06-08T08:51:28.253Z,100809.09
2019-06-08T08:54:02.020Z,100811.83
2019-06-08T08:56:27.956Z,100815.98
2019-06-08T08:58:59.257Z,100835.12
2019-06-08T09:01:28.913Z,100815.20
2019-06-08T09:04:01.647Z,100830.66
2019-06-08T09:06:28.351Z,100827.11
2019-06-08T09:09:00.826Z,100827.80
2019-06-08T09:11:28.912Z,100839.82
2019-06-08T09:14:01.408Z,100813.08
2019-06-08T09:16:28.805Z,100837.99
2019-06-08T09:19:01.197Z,100839.58
2019-06-08T09:21:28.295Z,100844.56
2019-06-08T09:24:00.713Z,100842.09
2019-06-08T09:26:31.065Z,100857.06
2019-06-08T09:28:58.479Z,100875.75
2019-06-08T09:31:28.058Z,100888.15
2019-06-08T09:34:07.483Z,100874.15
2019-06-08T09:36:28.804Z,100869.20
2019-06-08T09:39:00.941Z,100879.01
2019-06-08T09:41:31.266Z,100892.03
2019-06-08T09:44:02.152Z,100873.70
2019-06-08T09:46:29.333Z,100882.12
2019-06-08T09:49:03.680Z,100879.42
2019-06-08T09:51:28.670Z,100894.06
2019-06-08T09:54:00.840Z,100879.39
2019-06-08T09:56:28.376Z,100886.27
2019-06-08T09:59:01.289Z,100895.05
2019-06-08T10:01:28.668Z,100886.33
2019-06-08T10:04:00.830Z,100907.87
2019-06-08T10:06:27.971Z,100916.58
2019-06-08T10:08:56.504Z,100920.28
2019-06-08T10:11:27.910Z,100927.20
2019-06-08T10:13:59.388Z,100950.30
2019-06-08T10:16:27.959Z,100911.92
2019-06-08T10:18:59.961Z,100927.43
2019-06-08T10:21:28.408Z,100924.65
2019-06-08T10:24:00.578Z,100931.39
2019-06-08T10:26:28.140Z,100924.20
2019-06-08T10:29:00.286Z,100938.63
2019-06-08T10:31:36.506Z,100940.92
2019-06-08T10:34:00.544Z,100950.44
2019-06-08T10:36:28.637Z,100946.84
2019-06-08T10:39:01.783Z,100954.55
2019-06-08T10:41:27.985Z,100959.83
2019-06-08T10:43:57.170Z,100967.36
2019-06-08T10:46:25.890Z,100974.74
2019-06-08T10:48:54.580Z,100964.92
2019-06-08T10:51:23.203Z,100989.13
2019-06-08T10:53:53.065Z,100974.08
2019-06-08T10:56:22.300Z,100979.17
2019-06-08T10:58:50.834Z,100979.27
2019-06-08T11:01:19.362Z,100986.80
2019-06-08T11:03:48.864Z,100973.28
2019-06-08T11:06:18.806Z,100971.73
2019-06-08T11:08:47.650Z,100977.12
2019-06-08T11:11:19.471Z,100969.39
2019-06-08T11:13:50.168Z,100973.75
2019-06-08T11:16:18.149Z,100984.11
2019-06-08T11:18:50.826Z,100985.70
2019-06-08T11:21:18.790Z,100981.09
2019-06-08T11:24:04.710Z,100985.78
2019-06-08T11:26:23.895Z,100989.77
2019-06-08T11:28:51.245Z,101007.02
2019-06-08T11:31:19.870Z,100986.79
2019-06-08T11:33:49.108Z,100970.31
2019-06-08T11:36:18.904Z,100980.15
2019-06-08T11:38:48.059Z,100978.77
2019-06-08T11:41:19.040Z,100988.21
2019-06-08T11:43:47.237Z,100990.63
2019-06-08T11:46:19.014Z,100991.45
2019-06-08T11:48:48.363Z,101006.96
2019-06-08T11:51:16.745Z,101008.26
2019-06-08T11:53:48.208Z,101015.46
2019-06-08T11:56:18.119Z,101003.86
2019-06-08T11:58:48.584Z,100998.66
2019-06-08T12:01:18.565Z,101028.02
2019-06-08T12:03:48.345Z,101014.19
2019-06-08T12:06:18.559Z,101017.05
2019-06-08T12:08:47.386Z,101011.64
2019-06-08T12:11:19.800Z,101027.23
2019-06-08T12:13:47.380Z,101039.63
2019-06-08T12:16:21.639Z,101037.50
2019-06-08T12:18:49.269Z,101018.33
2019-06-08T12:21:18.550Z,101034.28
2019-06-08T12:23:47.343Z,101045.20
2019-06-08T12:26:15.991Z,101049.88
2019-06-08T12:28:44.632Z,101027.98
2019-06-08T12:31:17.101Z,101038.80
2019-06-08T12:33:43.582Z,101043.08
2019-06-08T12:36:15.204Z,101039.19
2019-06-08T12:38:42.855Z,101030.19
2019-06-08T12:41:12.741Z,101039.30
2019-06-08T12:43:41.840Z,101055.89
2019-06-08T12:46:12.546Z,101056.27
2019-06-08T12:48:40.902Z,101043.22
2019-06-08T12:51:11.403Z,101065.17
2019-06-08T12:53:40.096Z,101076.70
2019-06-08T12:56:10.621Z,101079.44
2019-06-08T12:58:39.411Z,101069.73
2019-06-08T13:01:09.484Z,101068.04
2019-06-08T13:03:38.579Z,101067.28
2019-06-08T13:06:09.253Z,101050.48
2019-06-08T13:08:38.051Z,101062.52
2019-06-08T13:11:09.043Z,101077.30
2019-06-08T13:13:40.654Z,101092.92
2019-06-08T13:16:10.478Z,101067.64
2019-06-08T13:18:40.842Z,101079.16
2019-06-08T13:21:22.145Z,101061.39
2019-06-08T13:23:41.294Z,101072.78
2019-06-08T13:26:11.490Z,101060.05
2019-06-08T13:28:40.966Z,101065.13
2019-06-08T13:31:11.687Z,101039.59
2019-06-08T13:33:40.013Z,101068.63
2019-06-08T13:36:08.655Z,101068.44
2019-06-08T13:38:38.046Z,101076.12
2019-06-08T13:41:08.737Z,101073.30
2019-06-08T13:43:40.378Z,101085.41
2019-06-08T13:46:08.236Z,101059.38
2019-06-08T13:48:37.598Z,101063.06
2019-06-08T13:51:08.424Z,101040.38
2019-06-08T13:53:38.373Z,101066.58
2019-06-08T13:56:07.915Z,101075.28
2019-06-08T13:58:38.227Z,101090.29
2019-06-08T14:01:10.005Z,101070.79
2019-06-08T14:03:38.151Z,101088.50
2019-06-08T14:06:07.666Z,101088.23
2019-06-08T14:08:38.450Z,101074.05
2019-06-08T14:11:08.261Z,101077.88
2019-06-08T14:13:38.089Z,101075.14
2019-06-08T14:16:08.866Z,101075.14
2019-06-08T14:18:38.611Z,101082.19
2019-06-08T14:21:07.330Z,101068.63
2019-06-08T14:23:38.701Z,101075.78
2019-06-08T14:26:08.292Z,101086.11
2019-06-08T14:28:38.064Z,101057.45
2019-06-08T14:31:08.291Z,101080.30
2019-06-08T14:33:38.140Z,101083.38
2019-06-08T14:36:07.980Z,101083.38
2019-06-08T14:38:41.060Z,101092.61
2019-06-08T14:41:07.720Z,101096.17
2019-06-08T14:43:38.196Z,101090.12
2019-06-08T14:46:08.071Z,101102.55
2019-06-08T14:48:37.924Z,101097.56
2019-06-08T14:51:08.766Z,101106.78
2019-06-08T14:53:38.698Z,101106.14
2019-06-08T14:56:08.880Z,101111.87
2019-06-08T14:58:38.630Z,101107.09
2019-06-08T15:01:07.996Z,101101.45
2019-06-08T15:03:38.076Z,101102.39
2019-06-08T15:06:08.153Z,101117.12
2019-06-08T15:08:37.033Z,101089.15
2019-06-08T15:11:07.919Z,101114.52
2019-06-08T15:13:37.358Z,101111.34
2019-06-08T15:16:08.243Z,101123.89
2019-06-08T15:18:38.578Z,101125.39
2019-06-08T15:21:07.942Z,101117.70
2019-06-08T15:23:36.649Z,101115.16
2019-06-08T15:26:19.780Z,101115.09
2019-06-08T15:28:36.450Z,101121.80
2019-06-08T15:31:08.159Z,101126.30
2019-06-08T15:33:38.199Z,101139.91
2019-06-08T15:36:08.341Z,101144.72
2019-06-08T15:38:38.056Z,101160.27
2019-06-08T15:41:07.826Z,101180.91
2019-06-08T15:43:39.967Z,101199.14
2019-06-08T15:46:08.504Z,101181.95
2019-06-08T15:48:38.179Z,101190.81
2019-06-08T15:51:07.887Z,101176.48
2019-06-08T15:53:37.811Z,101192.53
2019-06-08T15:56:08.384Z,101190.02
2019-06-08T15:58:40.153Z,101209.54
2019-06-08T16:01:07.977Z,101223.75
2019-06-08T16:03:36.602Z,101235.26
2019-06-08T16:06:05.347Z,101262.73
2019-06-08T16:08:37.529Z,101260.87
2019-06-08T16:11:04.485Z,101275.85
2019-06-08T16:13:33.094Z,101268.44
2019-06-08T16:16:01.684Z,101263.67
2019-06-08T16:18:31.644Z,101271.25
2019-06-08T16:21:00.281Z,101270.09
2019-06-08T16:23:29.930Z,101254.70
2019-06-08T16:25:58.585Z,101255.55
2019-06-08T16:28:27.751Z,101239.56
2019-06-08T16:30:56.342Z,101234.53
2019-06-08T16:33:24.964Z,101248.24
2019-06-08T16:35:53.488Z,101256.65
2019-06-08T16:38:22.304Z,101293.08
2019-06-08T16:40:50.914Z,101288.02
2019-06-08T16:43:19.438Z,101293.63
2019-06-08T16:45:47.987Z,101284.95
2019-06-08T16:48:16.502Z,101299.25
2019-06-08T16:50:45.025Z,101311.27
2019-06-08T16:53:13.668Z,101295.85
2019-06-08T16:55:42.295Z,101291.95
2019-06-08T16:58:10.918Z,101288.56
2019-06-08T17:00:42.061Z,101290.84
2019-06-08T17:03:10.125Z,101300.88
2019-06-08T17:05:38.952Z,101296.85
2019-06-08T17:08:07.592Z,101296.78
2019-06-08T17:10:36.915Z,101305.45
2019-06-08T17:13:05.553Z,101295.27
2019-06-08T17:15:34.313Z,101293.36
2019-06-08T17:18:03.066Z,101279.88
2019-06-08T17:20:32.060Z,101287.97
2019-06-08T17:23:00.639Z,101288.14
2019-06-08T17:25:30.273Z,101285.47
2019-06-08T17:27:59.186Z,101291.95
2019-06-08T17:30:27.726Z,101295.65
2019-06-08T17:32:56.240Z,101298.70
2019-06-08T17:35:24.976Z,101302.62
2019-06-08T17:37:53.514Z,101307.13
2019-06-08T17:40:22.158Z,101318.33
2019-06-08T17:42:50.767Z,101317.07
2019-06-08T17:45:19.517Z,101314.33
2019-06-08T17:47:48.024Z,101318.84
2019-06-08T17:50:17.530Z,101324.45
2019-06-08T17:52:46.074Z,101328.37
2019-06-08T17:55:14.793Z,101316.04
2019-06-08T17:57:53.005Z,101317.47
2019-06-08T18:00:14.937Z,101324.45
2019-06-08T18:02:45.363Z,101336.52
2019-06-08T18:05:14.179Z,101326.36
2019-06-08T18:07:44.321Z,101315.14
2019-06-08T18:10:13.552Z,101317.42
2019-06-08T18:12:44.323Z,101311.55
2019-06-08T18:15:13.427Z,101314.34
2019-06-08T18:17:43.733Z,101321.09
2019-06-08T18:20:13.427Z,101320.83
2019-06-08T18:22:44.355Z,101318.02
2019-06-08T18:25:14.169Z,101317.75
2019-06-08T18:28:00.840Z,101318.59
2019-06-08T18:30:15.571Z,101325.30
2019-06-08T18:32:48.374Z,101327.27
2019-06-08T18:35:18.262Z,101320.51
2019-06-08T18:37:49.890Z,101314.91
2019-06-08T18:40:18.835Z,101322.24
2019-06-08T18:42:48.752Z,101324.47
2019-06-08T18:45:18.278Z,101329.54
2019-06-08T18:47:48.347Z,101328.14
2019-06-08T18:50:17.520Z,101334.57
2019-06-08T18:52:49.432Z,101332.05
2019-06-08T18:55:18.230Z,101331.50
2019-06-08T18:57:48.960Z,101335.16
2019-06-08T19:00:22.165Z,101334.02
2019-06-08T19:02:54.489Z,101331.50
2019-06-08T19:05:21.547Z,101337.95
2019-06-08T19:07:52.076Z,101334.87
2019-06-08T19:10:31.470Z,101335.44
2019-06-08T19:13:00.209Z,101339.36
2019-06-08T19:15:33.341Z,101334.58
2019-06-08T19:18:02.065Z,101339.36
2019-06-08T19:20:30.709Z,101350.02
2019-06-08T19:22:59.783Z,101346.66
2019-06-08T19:25:28.290Z,101345.79
2019-06-08T19:27:57.930Z,101348.32
2019-06-08T19:30:28.186Z,101350.01
2019-06-08T19:32:57.861Z,101355.04
2019-06-08T19:35:27.386Z,101357.28
2019-06-08T19:37:58.129Z,101357.59
2019-06-08T19:40:27.188Z,101361.22
2019-06-08T19:43:00.057Z,101369.08
2019-06-08T19:45:27.666Z,101371.33
2019-06-08T19:47:57.716Z,101371.61
2019-06-08T19:50:28.641Z,101367.66
2019-06-08T19:52:57.994Z,101371.05
2019-06-08T19:55:26.800Z,101385.64
2019-06-08T19:57:57.017Z,101376.93
2019-06-08T20:00:27.920Z,101379.17
2019-06-08T20:02:58.229Z,101390.96
2019-06-08T20:05:28.548Z,101398.81
2019-06-08T20:07:57.663Z,101400.78
2019-06-08T20:10:28.056Z,101397.68
2019-06-08T20:12:57.594Z,101403.85
2019-06-08T20:15:26.470Z,101412.25
2019-06-08T20:17:57.278Z,101427.13
2019-06-08T20:20:27.715Z,101415.63
2019-06-08T20:22:58.357Z,101418.13
2019-06-08T20:25:27.896Z,101416.20
2019-06-08T20:27:58.668Z,101423.47
2019-06-08T20:30:28.170Z,101429.35
2019-06-08T20:32:57.648Z,101425.16
2019-06-08T20:35:28.058Z,101420.11
2019-06-08T20:37:57.807Z,101426.83
2019-06-08T20:40:27.980Z,101423.48
2019-06-08T20:42:57.778Z,101425.45
2019-06-08T20:45:28.116Z,101435.53
2019-06-08T20:47:58.513Z,101432.71
2019-06-08T20:50:27.248Z,101443.37
2019-06-08T20:52:57.638Z,101445.88
2019-06-08T20:55:28.337Z,101450.31
2019-06-08T20:57:57.552Z,101452.27
2019-06-08T21:00:26.253Z,101460.08
2019-06-08T21:02:57.941Z,101458.97
2019-06-08T21:05:27.571Z,101463.45
2019-06-08T21:07:56.394Z,101464.82
2019-06-08T21:10:28.129Z,101463.73
2019-06-08T21:12:58.776Z,101463.97
2019-06-08T21:15:27.553Z,101464.26
2019-06-08T21:17:56.187Z,101478.28
2019-06-08T21:20:25.228Z,101473.78
2019-06-08T21:22:55.032Z,101479.39
2019-06-08T21:25:24.202Z,101484.97
2019-06-08T21:27:54.069Z,101479.66
2019-06-08T21:30:24.678Z,101477.37
2019-06-08T21:32:56.091Z,101484.89
2019-06-08T21:35:23.962Z,101480.11
2019-06-08T21:37:53.385Z,101479.85
2019-06-08T21:40:22.927Z,101478.98
2019-06-08T21:42:53.541Z,101480.93
2019-06-08T21:45:21.920Z,101487.34
2019-06-08T21:47:51.730Z,101478.10
2019-06-08T21:50:21.050Z,101483.95
2019-06-08T21:52:51.577Z,101481.05
2019-06-08T21:55:20.107Z,101486.11
2019-06-08T21:57:51.128Z,101495.05
2019-06-08T22:00:38.121Z,101486.68
2019-06-08T22:02:51.754Z,101492.52
2019-06-08T22:05:20.687Z,101492.27
2019-06-08T22:07:50.082Z,101493.39
2019-06-08T22:10:18.869Z,101494.20
2019-06-08T22:12:48.334Z,101497.25
2019-06-08T22:15:18.243Z,101496.06
2019-06-08T22:17:47.596Z,101492.40
2019-06-08T22:20:18.690Z,101496.03
2019-06-08T22:22:47.431Z,101492.70
2019-06-08T22:25:17.579Z,101492.09
2019-06-08T22:27:46.371Z,101488.16
2019-06-08T22:30:32.336Z,101491.80
2019-06-08T22:32:47.388Z,101496.20
2019-06-08T22:35:16.178Z,101489.50
2019-06-08T22:37:44.812Z,101500.86
2019-06-08T22:40:13.572Z,101501.09
2019-06-08T22:42:42.234Z,101502.22
2019-06-08T22:45:11.186Z,101503.49
2019-06-08T22:47:39.731Z,101505.26
2019-06-08T22:50:08.749Z,101502.25
2019-06-08T22:52:38.178Z,101506.09
2019-06-08T22:55:10.476Z,101508.09
2019-06-08T22:57:37.891Z,101510.28
2019-06-08T23:00:14.255Z,101512.80
2019-06-08T23:02:38.526Z,101514.11
2019-06-08T23:05:09.884Z,101504.72
2019-06-08T23:07:39.375Z,101517.89
2019-06-08T23:10:09.102Z,101513.98
2019-06-08T23:12:38.261Z,101511.94
2019-06-08T23:15:07.900Z,101514.45
2019-06-08T23:17:38.597Z,101518.59
2019-06-08T23:20:08.744Z,101520.36
2019-06-08T23:22:38.468Z,101518.64
2019-06-08T23:25:09.312Z,101516.08
2019-06-08T23:27:38.392Z,101515.80
2019-06-08T23:30:10.299Z,101516.20
2019-06-08T23:32:38.730Z,101515.27
2019-06-08T23:35:09.580Z,101516.20
2019-06-08T23:37:38.370Z,101514.31
2019-06-08T23:40:07.670Z,101510.19
2019-06-08T23:42:38.420Z,101517.00
2019-06-08T23:45:10.324Z,101507.41
2019-06-08T23:47:38.689Z,101521.63
2019-06-08T23:50:09.982Z,101520.50
2019-06-08T23:52:38.420Z,101517.10
2019-06-08T23:55:10.569Z,101519.95
2019-06-08T23:57:38.149Z,101518.81
